sensor_id;sensor_type;location;lat;lon;timestamp;temperature;humidity
24560;DHT22;12727;49.934;8.656;2024-03-06T00:01:32;5.50;99.90
24560;DHT22;12727;49.934;8.656;2024-03-06T00:03:57;5.40;99.90
24560;DHT22;12727;49.934;8.656;2024-03-06T00:06:23;5.40;99.90
24560;DHT22;12727;49.934;8.656;2024-03-06T00:08:50;5.30;99.90
24560;DHT22;12727;49.934;8.656;2024-03-06T00:11:15;5.20;99.90
24560;DHT22;12727;49.934;8.656;2024-03-06T00:13:41;5.10;99.90
24560;DHT22;12727;49.934;8.656;2024-03-06T00:16:06;5.10;99.90
24560;DHT22;12727;49.934;8.656;2024-03-06T00:18:32;5.10;99.90
24560;DHT22;12727;49.934;8.656;2024-03-06T00:20:58;5.00;99.90
24560;DHT22;12727;49.934;8.656;2024-03-06T00:23:24;4.80;99.90
24560;DHT22;12727;49.934;8.656;2024-03-06T00:25:49;4.80;99.90
24560;DHT22;12727;49.934;8.656;2024-03-06T00:28:15;4.80;99.90
24560;DHT22;12727;49.934;8.656;2024-03-06T00:30:40;4.80;99.90
24560;DHT22;12727;49.934;8.656;2024-03-06T00:33:07;4.90;99.90
24560;DHT22;12727;49.934;8.656;2024-03-06T00:35:32;4.90;99.90
24560;DHT22;12727;49.934;8.656;2024-03-06T00:37:58;4.90;99.90
24560;DHT22;12727;49.934;8.656;2024-03-06T00:40:27;4.80;99.90
24560;DHT22;12727;49.934;8.656;2024-03-06T00:42:55;4.60;99.90
24560;DHT22;12727;49.934;8.656;2024-03-06T00:45:21;4.50;99.90
24560;DHT22;12727;49.934;8.656;2024-03-06T00:47:46;4.40;99.90
24560;DHT22;12727;49.934;8.656;2024-03-06T00:50:12;4.40;99.90
24560;DHT22;12727;49.934;8.656;2024-03-06T00:52:37;4.40;99.90
24560;DHT22;12727;49.934;8.656;2024-03-06T00:55:04;4.60;99.90
24560;DHT22;12727;49.934;8.656;2024-03-06T00:57:30;4.70;99.90
24560;DHT22;12727;49.934;8.656;2024-03-06T00:59:56;4.60;99.90
24560;DHT22;12727;49.934;8.656;2024-03-06T01:02:22;4.60;99.90
24560;DHT22;12727;49.934;8.656;2024-03-06T01:04:47;4.60;99.90
24560;DHT22;12727;49.934;8.656;2024-03-06T01:07:13;4.60;99.90
24560;DHT22;12727;49.934;8.656;2024-03-06T01:09:38;4.50;99.90
24560;DHT22;12727;49.934;8.656;2024-03-06T01:12:04;4.30;99.90
24560;DHT22;12727;49.934;8.656;2024-03-06T01:14:30;4.20;99.90
24560;DHT22;12727;49.934;8.656;2024-03-06T01:16:57;4.10;99.90
24560;DHT22;12727;49.934;8.656;2024-03-06T01:19:23;4.00;99.90
24560;DHT22;12727;49.934;8.656;2024-03-06T01:21:48;3.90;99.90
24560;DHT22;12727;49.934;8.656;2024-03-06T01:24:14;3.90;99.90
24560;DHT22;12727;49.934;8.656;2024-03-06T01:26:40;3.80;99.90
24560;DHT22;12727;49.934;8.656;2024-03-06T01:29:08;3.90;99.90
24560;DHT22;12727;49.934;8.656;2024-03-06T01:31:33;3.80;99.90
24560;DHT22;12727;49.934;8.656;2024-03-06T01:33:59;3.70;99.90
24560;DHT22;12727;49.934;8.656;2024-03-06T01:36:24;3.60;99.90
24560;DHT22;12727;49.934;8.656;2024-03-06T01:38:50;3.60;99.90
24560;DHT22;12727;49.934;8.656;2024-03-06T01:41:15;3.60;99.90
24560;DHT22;12727;49.934;8.656;2024-03-06T01:43:41;3.50;99.90
24560;DHT22;12727;49.934;8.656;2024-03-06T01:46:07;3.50;99.90
24560;DHT22;12727;49.934;8.656;2024-03-06T01:48:33;3.40;99.90
24560;DHT22;12727;49.934;8.656;2024-03-06T01:51:02;3.40;99.90
24560;DHT22;12727;49.934;8.656;2024-03-06T01:53:29;3.40;99.90
24560;DHT22;12727;49.934;8.656;2024-03-06T01:55:56;3.40;99.90
24560;DHT22;12727;49.934;8.656;2024-03-06T01:58:23;3.40;99.90
24560;DHT22;12727;49.934;8.656;2024-03-06T02:00:50;3.40;99.90
24560;DHT22;12727;49.934;8.656;2024-03-06T02:03:16;3.40;99.90
24560;DHT22;12727;49.934;8.656;2024-03-06T02:05:42;3.30;99.90
24560;DHT22;12727;49.934;8.656;2024-03-06T02:08:08;3.20;99.90
24560;DHT22;12727;49.934;8.656;2024-03-06T02:10:34;3.20;99.90
24560;DHT22;12727;49.934;8.656;2024-03-06T02:13:00;3.10;99.90
24560;DHT22;12727;49.934;8.656;2024-03-06T02:15:26;3.10;99.90
24560;DHT22;12727;49.934;8.656;2024-03-06T02:17:52;3.10;99.90
24560;DHT22;12727;49.934;8.656;2024-03-06T02:20:23;3.10;99.90
24560;DHT22;12727;49.934;8.656;2024-03-06T02:22:50;2.90;99.90
24560;DHT22;12727;49.934;8.656;2024-03-06T02:25:15;2.90;99.90
24560;DHT22;12727;49.934;8.656;2024-03-06T02:27:42;2.80;99.90
24560;DHT22;12727;49.934;8.656;2024-03-06T02:30:08;2.80;99.90
24560;DHT22;12727;49.934;8.656;2024-03-06T02:32:34;2.90;99.90
24560;DHT22;12727;49.934;8.656;2024-03-06T02:35:03;3.00;99.90
24560;DHT22;12727;49.934;8.656;2024-03-06T02:37:33;3.00;99.90
24560;DHT22;12727;49.934;8.656;2024-03-06T02:39:59;2.90;99.90
24560;DHT22;12727;49.934;8.656;2024-03-06T02:42:26;2.80;99.90
24560;DHT22;12727;49.934;8.656;2024-03-06T02:44:51;2.80;99.90
24560;DHT22;12727;49.934;8.656;2024-03-06T02:47:17;2.80;99.90
24560;DHT22;12727;49.934;8.656;2024-03-06T02:49:42;2.70;99.90
24560;DHT22;12727;49.934;8.656;2024-03-06T02:52:08;2.70;99.90
24560;DHT22;12727;49.934;8.656;2024-03-06T02:54:33;2.70;99.90
24560;DHT22;12727;49.934;8.656;2024-03-06T02:56:59;2.80;99.90
24560;DHT22;12727;49.934;8.656;2024-03-06T02:59:25;2.80;99.90
24560;DHT22;12727;49.934;8.656;2024-03-06T03:01:51;2.80;99.90
24560;DHT22;12727;49.934;8.656;2024-03-06T03:04:18;2.70;99.90
24560;DHT22;12727;49.934;8.656;2024-03-06T03:06:43;2.70;99.90
24560;DHT22;12727;49.934;8.656;2024-03-06T03:09:09;2.60;99.90
24560;DHT22;12727;49.934;8.656;2024-03-06T03:11:37;2.70;99.90
24560;DHT22;12727;49.934;8.656;2024-03-06T03:14:03;2.70;99.90
24560;DHT22;12727;49.934;8.656;2024-03-06T03:16:28;2.60;99.90
24560;DHT22;12727;49.934;8.656;2024-03-06T03:18:55;2.60;99.90
24560;DHT22;12727;49.934;8.656;2024-03-06T03:21:22;2.60;99.90
24560;DHT22;12727;49.934;8.656;2024-03-06T03:23:47;2.60;99.90
24560;DHT22;12727;49.934;8.656;2024-03-06T03:26:14;2.60;99.90
24560;DHT22;12727;49.934;8.656;2024-03-06T03:28:39;2.50;99.90
24560;DHT22;12727;49.934;8.656;2024-03-06T03:31:09;2.50;99.90
24560;DHT22;12727;49.934;8.656;2024-03-06T03:33:44;2.50;99.90
24560;DHT22;12727;49.934;8.656;2024-03-06T03:36:09;2.50;99.90
24560;DHT22;12727;49.934;8.656;2024-03-06T03:38:36;2.40;99.90
24560;DHT22;12727;49.934;8.656;2024-03-06T03:41:07;2.40;99.90
24560;DHT22;12727;49.934;8.656;2024-03-06T03:43:33;2.30;99.90
24560;DHT22;12727;49.934;8.656;2024-03-06T03:45:58;2.30;99.90
24560;DHT22;12727;49.934;8.656;2024-03-06T03:48:24;2.40;99.90
24560;DHT22;12727;49.934;8.656;2024-03-06T03:50:50;2.40;99.90
24560;DHT22;12727;49.934;8.656;2024-03-06T03:53:15;2.40;99.90
24560;DHT22;12727;49.934;8.656;2024-03-06T03:55:41;2.40;99.90
24560;DHT22;12727;49.934;8.656;2024-03-06T03:58:07;2.40;99.90
24560;DHT22;12727;49.934;8.656;2024-03-06T04:00:33;2.40;99.90
24560;DHT22;12727;49.934;8.656;2024-03-06T04:02:58;2.40;99.90
24560;DHT22;12727;49.934;8.656;2024-03-06T04:05:24;2.40;99.90
24560;DHT22;12727;49.934;8.656;2024-03-06T04:07:51;2.40;99.90
24560;DHT22;12727;49.934;8.656;2024-03-06T04:10:16;2.30;99.90
24560;DHT22;12727;49.934;8.656;2024-03-06T04:12:42;2.30;99.90
24560;DHT22;12727;49.934;8.656;2024-03-06T04:15:08;2.30;99.90
24560;DHT22;12727;49.934;8.656;2024-03-06T04:17:34;2.30;99.90
24560;DHT22;12727;49.934;8.656;2024-03-06T04:20:01;2.30;99.90
24560;DHT22;12727;49.934;8.656;2024-03-06T04:22:28;2.30;99.90
24560;DHT22;12727;49.934;8.656;2024-03-06T04:24:54;2.30;99.90
24560;DHT22;12727;49.934;8.656;2024-03-06T04:27:21;2.30;99.90
24560;DHT22;12727;49.934;8.656;2024-03-06T04:29:46;2.30;99.90
24560;DHT22;12727;49.934;8.656;2024-03-06T04:32:12;2.30;99.90
24560;DHT22;12727;49.934;8.656;2024-03-06T04:34:37;2.30;99.90
24560;DHT22;12727;49.934;8.656;2024-03-06T04:37:04;2.20;99.90
24560;DHT22;12727;49.934;8.656;2024-03-06T04:39:29;2.20;99.90
24560;DHT22;12727;49.934;8.656;2024-03-06T04:41:55;2.20;99.90
24560;DHT22;12727;49.934;8.656;2024-03-06T04:44:20;2.20;99.90
24560;DHT22;12727;49.934;8.656;2024-03-06T04:46:46;2.20;99.90
24560;DHT22;12727;49.934;8.656;2024-03-06T04:49:11;2.20;99.90
24560;DHT22;12727;49.934;8.656;2024-03-06T04:51:37;2.20;99.90
24560;DHT22;12727;49.934;8.656;2024-03-06T04:54:02;2.30;99.90
24560;DHT22;12727;49.934;8.656;2024-03-06T04:56:28;2.30;99.90
24560;DHT22;12727;49.934;8.656;2024-03-06T04:58:54;2.30;99.90
24560;DHT22;12727;49.934;8.656;2024-03-06T05:01:19;2.30;99.90
24560;DHT22;12727;49.934;8.656;2024-03-06T05:03:45;2.30;99.90
24560;DHT22;12727;49.934;8.656;2024-03-06T05:06:11;2.30;99.90
24560;DHT22;12727;49.934;8.656;2024-03-06T05:08:36;2.30;99.90
24560;DHT22;12727;49.934;8.656;2024-03-06T05:11:03;2.30;99.90
24560;DHT22;12727;49.934;8.656;2024-03-06T05:13:29;2.30;99.90
24560;DHT22;12727;49.934;8.656;2024-03-06T05:15:54;2.30;99.90
24560;DHT22;12727;49.934;8.656;2024-03-06T05:18:20;2.30;99.90
24560;DHT22;12727;49.934;8.656;2024-03-06T05:20:46;2.20;99.90
24560;DHT22;12727;49.934;8.656;2024-03-06T05:23:12;2.20;99.90
24560;DHT22;12727;49.934;8.656;2024-03-06T05:25:38;2.20;99.90
24560;DHT22;12727;49.934;8.656;2024-03-06T05:28:04;2.20;99.90
24560;DHT22;12727;49.934;8.656;2024-03-06T05:30:30;2.30;99.90
24560;DHT22;12727;49.934;8.656;2024-03-06T05:32:56;2.30;99.90
24560;DHT22;12727;49.934;8.656;2024-03-06T05:35:21;2.30;99.90
24560;DHT22;12727;49.934;8.656;2024-03-06T05:37:47;2.30;99.90
24560;DHT22;12727;49.934;8.656;2024-03-06T05:40:13;2.40;99.90
24560;DHT22;12727;49.934;8.656;2024-03-06T05:42:38;2.40;99.90
24560;DHT22;12727;49.934;8.656;2024-03-06T05:45:04;2.40;99.90
24560;DHT22;12727;49.934;8.656;2024-03-06T05:47:36;2.50;99.90
24560;DHT22;12727;49.934;8.656;2024-03-06T05:50:01;2.50;99.90
24560;DHT22;12727;49.934;8.656;2024-03-06T05:52:30;2.50;99.90
24560;DHT22;12727;49.934;8.656;2024-03-06T05:54:55;2.50;99.90
24560;DHT22;12727;49.934;8.656;2024-03-06T05:57:21;2.60;99.90
24560;DHT22;12727;49.934;8.656;2024-03-06T05:59:46;2.60;99.90
24560;DHT22;12727;49.934;8.656;2024-03-06T06:02:12;2.60;99.90
24560;DHT22;12727;49.934;8.656;2024-03-06T06:04:37;2.60;99.90
24560;DHT22;12727;49.934;8.656;2024-03-06T06:07:03;2.60;99.90
24560;DHT22;12727;49.934;8.656;2024-03-06T06:09:29;2.50;99.90
24560;DHT22;12727;49.934;8.656;2024-03-06T06:11:54;2.50;99.90
24560;DHT22;12727;49.934;8.656;2024-03-06T06:14:20;2.60;99.90
24560;DHT22;12727;49.934;8.656;2024-03-06T06:16:45;2.60;99.90
24560;DHT22;12727;49.934;8.656;2024-03-06T06:19:11;2.70;99.90
24560;DHT22;12727;49.934;8.656;2024-03-06T06:21:37;2.70;99.90
24560;DHT22;12727;49.934;8.656;2024-03-06T06:24:03;2.70;99.90
24560;DHT22;12727;49.934;8.656;2024-03-06T06:26:30;2.70;99.90
24560;DHT22;12727;49.934;8.656;2024-03-06T06:28:56;2.70;99.90
24560;DHT22;12727;49.934;8.656;2024-03-06T06:31:22;2.70;99.90
24560;DHT22;12727;49.934;8.656;2024-03-06T06:33:49;2.80;99.90
24560;DHT22;12727;49.934;8.656;2024-03-06T06:36:14;2.70;99.90
24560;DHT22;12727;49.934;8.656;2024-03-06T06:38:40;2.80;99.90
24560;DHT22;12727;49.934;8.656;2024-03-06T06:41:06;2.80;99.90
24560;DHT22;12727;49.934;8.656;2024-03-06T06:43:31;2.90;99.90
24560;DHT22;12727;49.934;8.656;2024-03-06T06:45:57;2.90;99.90
24560;DHT22;12727;49.934;8.656;2024-03-06T06:48:22;3.10;99.90
24560;DHT22;12727;49.934;8.656;2024-03-06T06:50:48;3.20;99.90
24560;DHT22;12727;49.934;8.656;2024-03-06T06:53:14;3.30;99.90
24560;DHT22;12727;49.934;8.656;2024-03-06T06:55:39;3.40;99.90
24560;DHT22;12727;49.934;8.656;2024-03-06T06:58:05;3.40;99.90
24560;DHT22;12727;49.934;8.656;2024-03-06T07:00:31;3.50;99.90
24560;DHT22;12727;49.934;8.656;2024-03-06T07:02:58;3.60;99.90
24560;DHT22;12727;49.934;8.656;2024-03-06T07:05:24;3.60;99.90
24560;DHT22;12727;49.934;8.656;2024-03-06T07:07:49;3.60;99.90
24560;DHT22;12727;49.934;8.656;2024-03-06T07:10:15;3.60;99.90
24560;DHT22;12727;49.934;8.656;2024-03-06T07:12:40;3.60;99.90
24560;DHT22;12727;49.934;8.656;2024-03-06T07:15:06;3.60;99.90
24560;DHT22;12727;49.934;8.656;2024-03-06T07:17:32;3.70;99.90
24560;DHT22;12727;49.934;8.656;2024-03-06T07:19:58;3.70;99.90
24560;DHT22;12727;49.934;8.656;2024-03-06T07:22:23;3.80;99.90
24560;DHT22;12727;49.934;8.656;2024-03-06T07:24:49;3.90;99.90
24560;DHT22;12727;49.934;8.656;2024-03-06T07:27:14;4.00;99.90
24560;DHT22;12727;49.934;8.656;2024-03-06T07:29:40;4.10;99.90
24560;DHT22;12727;49.934;8.656;2024-03-06T07:32:06;4.40;99.90
24560;DHT22;12727;49.934;8.656;2024-03-06T07:34:31;4.50;99.90
24560;DHT22;12727;49.934;8.656;2024-03-06T07:36:58;4.70;99.90
24560;DHT22;12727;49.934;8.656;2024-03-06T07:39:27;4.90;99.90
24560;DHT22;12727;49.934;8.656;2024-03-06T07:41:52;5.30;99.90
24560;DHT22;12727;49.934;8.656;2024-03-06T07:44:18;5.60;99.90
24560;DHT22;12727;49.934;8.656;2024-03-06T07:46:45;6.00;99.90
24560;DHT22;12727;49.934;8.656;2024-03-06T07:49:11;6.50;99.90
24560;DHT22;12727;49.934;8.656;2024-03-06T07:51:36;6.80;99.90
24560;DHT22;12727;49.934;8.656;2024-03-06T07:54:02;7.10;99.90
24560;DHT22;12727;49.934;8.656;2024-03-06T07:56:29;7.10;99.90
24560;DHT22;12727;49.934;8.656;2024-03-06T07:58:55;7.00;99.90
24560;DHT22;12727;49.934;8.656;2024-03-06T08:01:21;6.90;99.90
24560;DHT22;12727;49.934;8.656;2024-03-06T08:03:47;6.80;99.90
24560;DHT22;12727;49.934;8.656;2024-03-06T08:06:12;6.60;99.90
24560;DHT22;12727;49.934;8.656;2024-03-06T08:08:45;6.50;99.90
24560;DHT22;12727;49.934;8.656;2024-03-06T08:11:11;6.60;99.90
24560;DHT22;12727;49.934;8.656;2024-03-06T08:13:37;6.60;99.90
24560;DHT22;12727;49.934;8.656;2024-03-06T08:16:07;6.70;99.90
24560;DHT22;12727;49.934;8.656;2024-03-06T08:18:34;6.60;99.90
24560;DHT22;12727;49.934;8.656;2024-03-06T08:21:00;6.60;99.90
24560;DHT22;12727;49.934;8.656;2024-03-06T08:23:26;6.60;99.90
24560;DHT22;12727;49.934;8.656;2024-03-06T08:25:51;6.60;99.90
24560;DHT22;12727;49.934;8.656;2024-03-06T08:28:20;6.60;99.90
24560;DHT22;12727;49.934;8.656;2024-03-06T08:30:46;6.70;99.90
24560;DHT22;12727;49.934;8.656;2024-03-06T08:33:11;6.70;99.90
24560;DHT22;12727;49.934;8.656;2024-03-06T08:35:37;6.80;99.90
24560;DHT22;12727;49.934;8.656;2024-03-06T08:38:03;6.90;99.90
24560;DHT22;12727;49.934;8.656;2024-03-06T08:40:29;7.00;99.90
24560;DHT22;12727;49.934;8.656;2024-03-06T08:42:55;7.00;99.90
24560;DHT22;12727;49.934;8.656;2024-03-06T08:45:21;7.00;99.90
24560;DHT22;12727;49.934;8.656;2024-03-06T08:47:47;7.00;99.90
24560;DHT22;12727;49.934;8.656;2024-03-06T08:50:13;7.00;99.90
24560;DHT22;12727;49.934;8.656;2024-03-06T08:52:39;7.00;99.90
24560;DHT22;12727;49.934;8.656;2024-03-06T08:55:06;7.00;99.90
24560;DHT22;12727;49.934;8.656;2024-03-06T08:57:33;7.20;99.90
24560;DHT22;12727;49.934;8.656;2024-03-06T08:59:59;7.30;99.90
24560;DHT22;12727;49.934;8.656;2024-03-06T09:02:25;7.30;99.90
24560;DHT22;12727;49.934;8.656;2024-03-06T09:04:51;7.40;99.90
24560;DHT22;12727;49.934;8.656;2024-03-06T09:07:17;7.70;99.90
24560;DHT22;12727;49.934;8.656;2024-03-06T09:09:43;7.80;99.90
24560;DHT22;12727;49.934;8.656;2024-03-06T09:12:10;7.90;99.90
24560;DHT22;12727;49.934;8.656;2024-03-06T09:14:36;8.10;99.90
24560;DHT22;12727;49.934;8.656;2024-03-06T09:17:03;8.20;99.90
24560;DHT22;12727;49.934;8.656;2024-03-06T09:19:29;8.10;99.90
24560;DHT22;12727;49.934;8.656;2024-03-06T09:21:55;8.30;99.90
24560;DHT22;12727;49.934;8.656;2024-03-06T09:24:22;8.30;99.90
24560;DHT22;12727;49.934;8.656;2024-03-06T09:26:49;8.40;99.90
24560;DHT22;12727;49.934;8.656;2024-03-06T09:29:14;8.50;99.90
24560;DHT22;12727;49.934;8.656;2024-03-06T09:31:41;8.60;99.90
24560;DHT22;12727;49.934;8.656;2024-03-06T09:34:06;8.70;99.90
24560;DHT22;12727;49.934;8.656;2024-03-06T09:36:32;8.80;99.90
24560;DHT22;12727;49.934;8.656;2024-03-06T09:38:58;8.90;99.90
24560;DHT22;12727;49.934;8.656;2024-03-06T09:41:24;9.00;99.90
24560;DHT22;12727;49.934;8.656;2024-03-06T09:43:50;8.90;99.90
24560;DHT22;12727;49.934;8.656;2024-03-06T09:46:15;9.00;99.90
24560;DHT22;12727;49.934;8.656;2024-03-06T09:48:47;9.30;99.90
24560;DHT22;12727;49.934;8.656;2024-03-06T09:51:13;9.40;99.90
24560;DHT22;12727;49.934;8.656;2024-03-06T09:53:40;9.40;99.90
24560;DHT22;12727;49.934;8.656;2024-03-06T09:56:06;9.60;99.90
24560;DHT22;12727;49.934;8.656;2024-03-06T09:58:32;9.70;99.90
24560;DHT22;12727;49.934;8.656;2024-03-06T10:01:01;9.80;99.90
24560;DHT22;12727;49.934;8.656;2024-03-06T10:03:33;10.10;99.90
24560;DHT22;12727;49.934;8.656;2024-03-06T10:05:59;10.10;99.90
24560;DHT22;12727;49.934;8.656;2024-03-06T10:08:25;10.50;99.90
24560;DHT22;12727;49.934;8.656;2024-03-06T10:10:52;10.70;99.90
24560;DHT22;12727;49.934;8.656;2024-03-06T10:13:17;10.80;99.90
24560;DHT22;12727;49.934;8.656;2024-03-06T10:15:59;11.00;99.90
24560;DHT22;12727;49.934;8.656;2024-03-06T10:18:30;11.20;99.90
24560;DHT22;12727;49.934;8.656;2024-03-06T10:20:56;11.50;99.90
24560;DHT22;12727;49.934;8.656;2024-03-06T10:23:22;11.70;99.90
24560;DHT22;12727;49.934;8.656;2024-03-06T10:25:48;11.90;99.90
24560;DHT22;12727;49.934;8.656;2024-03-06T10:28:21;12.00;99.90
24560;DHT22;12727;49.934;8.656;2024-03-06T10:30:51;11.50;99.90
24560;DHT22;12727;49.934;8.656;2024-03-06T10:33:18;11.40;99.90
24560;DHT22;12727;49.934;8.656;2024-03-06T10:35:46;11.50;99.90
24560;DHT22;12727;49.934;8.656;2024-03-06T10:38:13;11.50;99.90
24560;DHT22;12727;49.934;8.656;2024-03-06T10:40:43;11.50;99.90
24560;DHT22;12727;49.934;8.656;2024-03-06T10:43:09;11.40;99.90
24560;DHT22;12727;49.934;8.656;2024-03-06T10:45:50;11.30;99.90
24560;DHT22;12727;49.934;8.656;2024-03-06T10:48:19;11.20;99.90
24560;DHT22;12727;49.934;8.656;2024-03-06T10:50:47;11.10;99.90
24560;DHT22;12727;49.934;8.656;2024-03-06T10:53:15;10.90;99.90
24560;DHT22;12727;49.934;8.656;2024-03-06T10:55:43;10.90;99.90
24560;DHT22;12727;49.934;8.656;2024-03-06T10:58:12;10.80;99.90
24560;DHT22;12727;49.934;8.656;2024-03-06T11:00:40;10.80;99.90
24560;DHT22;12727;49.934;8.656;2024-03-06T11:03:07;10.70;99.90
24560;DHT22;12727;49.934;8.656;2024-03-06T11:05:39;10.60;99.90
24560;DHT22;12727;49.934;8.656;2024-03-06T11:10:34;10.50;99.90
24560;DHT22;12727;49.934;8.656;2024-03-06T11:13:01;10.60;99.90
24560;DHT22;12727;49.934;8.656;2024-03-06T11:15:27;10.80;99.90
24560;DHT22;12727;49.934;8.656;2024-03-06T11:17:52;11.10;99.90
24560;DHT22;12727;49.934;8.656;2024-03-06T11:20:20;11.10;99.90
24560;DHT22;12727;49.934;8.656;2024-03-06T11:28:25;10.90;99.90
24560;DHT22;12727;49.934;8.656;2024-03-06T11:31:04;10.90;99.90
24560;DHT22;12727;49.934;8.656;2024-03-06T11:33:43;11.00;99.90
24560;DHT22;12727;49.934;8.656;2024-03-06T11:36:19;11.10;99.90
24560;DHT22;12727;49.934;8.656;2024-03-06T11:39:04;11.20;99.90
24560;DHT22;12727;49.934;8.656;2024-03-06T11:44:01;11.60;99.90
24560;DHT22;12727;49.934;8.656;2024-03-06T11:46:48;11.80;99.90
24560;DHT22;12727;49.934;8.656;2024-03-06T11:49:19;12.00;99.90
24560;DHT22;12727;49.934;8.656;2024-03-06T11:51:46;12.00;99.90
24560;DHT22;12727;49.934;8.656;2024-03-06T11:54:13;11.80;99.90
24560;DHT22;12727;49.934;8.656;2024-03-06T11:56:43;11.70;99.90
24560;DHT22;12727;49.934;8.656;2024-03-06T11:59:10;11.60;99.90
24560;DHT22;12727;49.934;8.656;2024-03-06T12:01:37;11.50;99.90
24560;DHT22;12727;49.934;8.656;2024-03-06T12:04:03;11.40;99.90
24560;DHT22;12727;49.934;8.656;2024-03-06T12:06:32;11.40;99.90
24560;DHT22;12727;49.934;8.656;2024-03-06T12:08:58;11.50;99.90
24560;DHT22;12727;49.934;8.656;2024-03-06T12:11:25;11.40;99.90
24560;DHT22;12727;49.934;8.656;2024-03-06T12:13:54;11.50;99.90
24560;DHT22;12727;49.934;8.656;2024-03-06T12:16:21;11.70;99.90
24560;DHT22;12727;49.934;8.656;2024-03-06T12:18:46;11.70;99.90
24560;DHT22;12727;49.934;8.656;2024-03-06T12:21:12;11.70;99.90
24560;DHT22;12727;49.934;8.656;2024-03-06T12:23:39;11.60;99.90
24560;DHT22;12727;49.934;8.656;2024-03-06T12:26:06;11.50;99.90
24560;DHT22;12727;49.934;8.656;2024-03-06T12:28:32;11.50;99.90
24560;DHT22;12727;49.934;8.656;2024-03-06T12:30:58;11.60;99.90
24560;DHT22;12727;49.934;8.656;2024-03-06T12:33:27;11.70;99.90
24560;DHT22;12727;49.934;8.656;2024-03-06T12:36:06;11.70;99.90
24560;DHT22;12727;49.934;8.656;2024-03-06T12:38:33;11.90;99.90
24560;DHT22;12727;49.934;8.656;2024-03-06T12:40:59;11.90;99.90
24560;DHT22;12727;49.934;8.656;2024-03-06T12:43:28;11.90;99.90
24560;DHT22;12727;49.934;8.656;2024-03-06T12:45:54;11.80;99.90
24560;DHT22;12727;49.934;8.656;2024-03-06T12:48:21;11.80;99.90
24560;DHT22;12727;49.934;8.656;2024-03-06T12:50:47;11.80;99.90
24560;DHT22;12727;49.934;8.656;2024-03-06T12:53:18;11.80;99.90
24560;DHT22;12727;49.934;8.656;2024-03-06T12:55:44;11.60;99.90
24560;DHT22;12727;49.934;8.656;2024-03-06T12:58:11;11.60;99.90
24560;DHT22;12727;49.934;8.656;2024-03-06T13:00:37;11.50;99.90
24560;DHT22;12727;49.934;8.656;2024-03-06T13:03:03;11.20;99.90
24560;DHT22;12727;49.934;8.656;2024-03-06T13:05:29;11.10;99.90
24560;DHT22;12727;49.934;8.656;2024-03-06T13:07:54;11.00;99.90
24560;DHT22;12727;49.934;8.656;2024-03-06T13:10:20;11.00;99.90
24560;DHT22;12727;49.934;8.656;2024-03-06T13:12:47;11.10;99.90
24560;DHT22;12727;49.934;8.656;2024-03-06T13:15:13;11.10;99.90
24560;DHT22;12727;49.934;8.656;2024-03-06T13:17:38;11.10;99.90
24560;DHT22;12727;49.934;8.656;2024-03-06T13:20:06;11.10;99.90
24560;DHT22;12727;49.934;8.656;2024-03-06T13:22:35;10.90;99.90
24560;DHT22;12727;49.934;8.656;2024-03-06T13:25:00;10.90;99.90
24560;DHT22;12727;49.934;8.656;2024-03-06T13:27:26;11.00;99.90
24560;DHT22;12727;49.934;8.656;2024-03-06T13:29:52;11.00;99.90
24560;DHT22;12727;49.934;8.656;2024-03-06T13:32:18;10.90;99.90
24560;DHT22;12727;49.934;8.656;2024-03-06T13:34:43;10.80;99.90
24560;DHT22;12727;49.934;8.656;2024-03-06T13:37:09;10.80;99.90
24560;DHT22;12727;49.934;8.656;2024-03-06T13:39:36;10.70;99.90
24560;DHT22;12727;49.934;8.656;2024-03-06T13:42:01;10.80;99.90
24560;DHT22;12727;49.934;8.656;2024-03-06T13:44:27;10.90;99.90
24560;DHT22;12727;49.934;8.656;2024-03-06T13:46:53;11.00;99.90
24560;DHT22;12727;49.934;8.656;2024-03-06T13:49:40;11.10;99.90
24560;DHT22;12727;49.934;8.656;2024-03-06T13:52:07;11.20;99.90
24560;DHT22;12727;49.934;8.656;2024-03-06T13:54:44;11.30;99.90
24560;DHT22;12727;49.934;8.656;2024-03-06T13:57:10;11.40;99.90
24560;DHT22;12727;49.934;8.656;2024-03-06T13:59:36;11.40;99.90
24560;DHT22;12727;49.934;8.656;2024-03-06T14:02:03;11.30;99.90
24560;DHT22;12727;49.934;8.656;2024-03-06T14:04:29;11.30;99.90
24560;DHT22;12727;49.934;8.656;2024-03-06T14:06:55;11.30;99.90
24560;DHT22;12727;49.934;8.656;2024-03-06T14:09:22;11.30;99.90
24560;DHT22;12727;49.934;8.656;2024-03-06T14:11:49;11.30;99.90
24560;DHT22;12727;49.934;8.656;2024-03-06T14:14:16;11.40;99.90
24560;DHT22;12727;49.934;8.656;2024-03-06T14:16:41;11.40;99.90
24560;DHT22;12727;49.934;8.656;2024-03-06T14:19:08;11.40;99.90
24560;DHT22;12727;49.934;8.656;2024-03-06T14:21:34;11.40;99.90
24560;DHT22;12727;49.934;8.656;2024-03-06T14:24:00;11.40;99.90
24560;DHT22;12727;49.934;8.656;2024-03-06T14:26:32;11.30;99.90
24560;DHT22;12727;49.934;8.656;2024-03-06T14:28:59;11.30;99.90
24560;DHT22;12727;49.934;8.656;2024-03-06T14:31:24;11.20;99.90
24560;DHT22;12727;49.934;8.656;2024-03-06T14:33:50;11.20;99.90
24560;DHT22;12727;49.934;8.656;2024-03-06T14:36:16;11.20;99.90
24560;DHT22;12727;49.934;8.656;2024-03-06T14:38:42;11.20;99.90
24560;DHT22;12727;49.934;8.656;2024-03-06T14:41:09;11.20;99.90
24560;DHT22;12727;49.934;8.656;2024-03-06T14:43:35;11.20;99.90
24560;DHT22;12727;49.934;8.656;2024-03-06T14:46:04;11.20;99.90
24560;DHT22;12727;49.934;8.656;2024-03-06T14:48:30;11.20;99.90
24560;DHT22;12727;49.934;8.656;2024-03-06T14:50:55;11.20;99.90
24560;DHT22;12727;49.934;8.656;2024-03-06T14:53:21;11.20;99.90
24560;DHT22;12727;49.934;8.656;2024-03-06T14:55:46;11.20;99.90
24560;DHT22;12727;49.934;8.656;2024-03-06T14:58:13;11.20;99.90
24560;DHT22;12727;49.934;8.656;2024-03-06T15:00:38;11.20;99.90
24560;DHT22;12727;49.934;8.656;2024-03-06T15:03:04;11.20;99.90
24560;DHT22;12727;49.934;8.656;2024-03-06T15:05:29;11.20;99.90
24560;DHT22;12727;49.934;8.656;2024-03-06T15:07:57;11.10;99.90
24560;DHT22;12727;49.934;8.656;2024-03-06T15:10:23;11.00;99.90
24560;DHT22;12727;49.934;8.656;2024-03-06T15:12:49;11.00;99.90
24560;DHT22;12727;49.934;8.656;2024-03-06T15:15:15;10.90;99.90
24560;DHT22;12727;49.934;8.656;2024-03-06T15:17:40;10.90;99.90
24560;DHT22;12727;49.934;8.656;2024-03-06T15:20:07;10.90;99.90
24560;DHT22;12727;49.934;8.656;2024-03-06T15:22:36;10.80;99.90
24560;DHT22;12727;49.934;8.656;2024-03-06T15:25:10;10.80;99.90
24560;DHT22;12727;49.934;8.656;2024-03-06T15:27:37;10.80;99.90
24560;DHT22;12727;49.934;8.656;2024-03-06T15:30:09;10.70;99.90
24560;DHT22;12727;49.934;8.656;2024-03-06T15:32:36;10.60;99.90
24560;DHT22;12727;49.934;8.656;2024-03-06T15:35:02;10.60;99.90
24560;DHT22;12727;49.934;8.656;2024-03-06T15:37:29;10.60;99.90
24560;DHT22;12727;49.934;8.656;2024-03-06T15:39:55;10.50;99.90
24560;DHT22;12727;49.934;8.656;2024-03-06T15:42:21;10.50;99.90
24560;DHT22;12727;49.934;8.656;2024-03-06T15:44:48;10.40;99.90
24560;DHT22;12727;49.934;8.656;2024-03-06T15:47:16;10.30;99.90